Time;durP1;ratioP1;P1;durP2;ratioP2;P2;SDS_P1;SDS_P2;PMS_P1;PMS_P2;Temp;Humidity;BMP_temperature;BMP_pressure;BME280_temperature;BME280_humidity;BME280_pressure;Samples;Min_cycle;Max_cycle;Signal;HPM_P1;HPM_P2
2022/02/26 00:01:15;;;;;;;88.47;69.43;;;2.60;99.90;;;;;;4850408;29;20405;-87
2022/02/26 00:03:40;;;;;;;92.20;78.73;;;2.60;99.90;;;;;;4849664;29;20187;-87
2022/02/26 00:06:06;;;;;;;93.60;73.63;;;2.60;99.90;;;;;;4848526;29;20203;-88
2022/02/26 00:08:32;;;;;;;92.20;74.10;;;2.60;99.90;;;;;;4848678;29;20179;-87
2022/02/26 00:10:58;;;;;;;102.30;82.90;;;2.60;99.90;;;;;;4849946;29;20902;-87
2022/02/26 00:13:24;;;;;;;103.97;76.70;;;2.60;99.90;;;;;;4848323;29;20172;-87
2022/02/26 00:15:49;;;;;;;90.77;70.87;;;2.60;99.90;;;;;;4848260;29;20433;-87
2022/02/26 00:18:15;;;;;;;97.20;73.03;;;2.60;99.90;;;;;;4847959;29;20465;-87
2022/02/26 00:20:41;;;;;;;98.70;85.53;;;2.50;99.90;;;;;;4848280;29;20214;-87
2022/02/26 00:23:07;;;;;;;91.37;74.63;;;2.50;99.90;;;;;;4848088;29;20416;-87
2022/02/26 00:25:33;;;;;;;88.82;66.22;;;2.50;99.90;;;;;;4847845;29;20207;-87
2022/02/26 00:27:58;;;;;;;95.83;82.23;;;2.50;99.90;;;;;;4848151;29;20207;-87
2022/02/26 00:30:24;;;;;;;96.17;68.47;;;2.40;99.90;;;;;;4849245;29;20805;-87
2022/02/26 00:32:50;;;;;;;96.77;73.97;;;2.40;99.90;;;;;;4848512;29;20187;-87
2022/02/26 00:35:16;;;;;;;95.70;61.43;;;2.40;99.90;;;;;;4849847;29;20415;-87
2022/02/26 00:37:42;;;;;;;102.00;84.60;;;2.40;99.90;;;;;;4849590;29;20263;-87
2022/02/26 00:40:08;;;;;;;84.33;52.43;;;2.40;99.90;;;;;;4849003;29;20192;-89
2022/02/26 00:42:34;;;;;;;97.55;76.75;;;2.30;99.90;;;;;;4843715;29;20409;-89
2022/02/26 00:44:59;;;;;;;94.13;70.00;;;2.30;99.90;;;;;;4843877;29;20176;-89
2022/02/26 00:47:25;;;;;;;90.73;59.97;;;2.30;99.90;;;;;;4846463;29;20241;-87
2022/02/26 00:49:51;;;;;;;90.03;66.63;;;2.30;99.90;;;;;;4847785;29;20413;-87
2022/02/26 00:52:30;;;;;;;92.37;60.23;;;2.30;99.90;;;;;;4848928;29;20415;-87
2022/02/26 00:55:09;;;;;;;89.10;58.47;;;2.20;99.90;;;;;;4849690;29;20393;-87
2022/02/26 00:57:35;;;;;;;87.88;64.85;;;2.20;99.90;;;;;;4848686;29;20160;-87
2022/02/26 01:00:06;;;;;;;92.57;63.87;;;2.30;99.90;;;;;;4847276;29;20179;-87
2022/02/26 01:03:01;;;;;;;102.00;64.35;;;2.30;99.90;;;;;;4847739;29;20447;-87
2022/02/26 01:05:43;;;;;;;;;;;;;;;;;;;;;
2022/02/26 01:08:15;;;;;;;89.70;70.90;;;2.40;99.90;;;;;;4848322;29;20243;-87
2022/02/26 01:10:44;;;;;;;93.32;71.70;;;2.40;99.90;;;;;;4848443;29;20203;-87
2022/02/26 01:13:10;;;;;;;94.00;73.25;;;2.40;99.90;;;;;;4847002;29;20186;-86
2022/02/26 01:15:38;;;;;;;88.80;72.97;;;2.40;99.90;;;;;;4847318;29;20199;-87
2022/02/26 01:18:07;;;;;;;94.97;78.47;;;2.50;99.90;;;;;;4848371;29;20259;-87
2022/02/26 01:20:37;;;;;;;105.60;94.80;;;2.50;99.90;;;;;;4847779;29;20203;-87
2022/02/26 01:23:02;;;;;;;92.43;71.43;;;2.50;99.90;;;;;;4847744;29;20176;-87
2022/02/26 01:25:43;;;;;;;103.83;88.77;;;2.50;99.90;;;;;;4846816;29;20207;-87
2022/02/26 01:28:11;;;;;;;93.68;77.20;;;2.50;99.90;;;;;;4847725;29;20176;-87
2022/02/26 01:30:39;;;;;;;104.35;85.43;;;2.50;99.90;;;;;;4847729;29;20191;-87
2022/02/26 01:33:11;;;;;;;96.20;84.65;;;2.50;99.90;;;;;;4847313;29;20163;-86
2022/02/26 01:35:40;;;;;;;108.93;97.43;;;2.50;99.90;;;;;;4847227;29;20558;-86
2022/02/26 01:38:06;;;;;;;96.55;70.50;;;2.40;99.90;;;;;;4847534;29;20169;-87
2022/02/26 01:40:38;;;;;;;97.53;86.60;;;2.40;99.90;;;;;;4846420;29;20176;-87
2022/02/26 01:43:03;;;;;;;97.25;78.63;;;2.40;99.90;;;;;;4846818;29;20417;-87
2022/02/26 01:45:29;;;;;;;101.50;90.30;;;2.30;99.90;;;;;;4847325;29;20198;-86
2022/02/26 01:47:58;;;;;;;106.13;89.70;;;2.40;99.90;;;;;;4848071;29;20220;-87
2022/02/26 01:50:24;;;;;;;103.40;92.55;;;2.30;99.90;;;;;;4847651;29;20973;-87
2022/02/26 01:52:50;;;;;;;106.53;93.45;;;2.40;99.90;;;;;;4847189;29;20175;-87
2022/02/26 01:55:16;;;;;;;113.03;100.63;;;2.40;99.90;;;;;;4847957;29;20667;-87
2022/02/26 01:57:42;;;;;;;90.93;73.60;;;2.40;99.90;;;;;;4847192;29;20200;-86
2022/02/26 02:00:11;;;;;;;101.60;78.70;;;2.50;99.90;;;;;;4849074;29;20748;-86
2022/02/26 02:02:39;;;;;;;117.85;105.45;;;2.50;99.90;;;;;;4848524;29;20188;-87
2022/02/26 02:05:06;;;;;;;104.65;93.55;;;2.60;99.90;;;;;;4846521;29;20244;-87
2022/02/26 02:07:31;;;;;;;103.85;92.88;;;2.50;99.90;;;;;;4847464;29;20168;-87
2022/02/26 02:09:57;;;;;;;99.63;88.77;;;2.60;99.90;;;;;;4846138;29;20243;-87
2022/02/26 02:12:23;;;;;;;111.10;100.03;;;2.60;99.90;;;;;;4846675;29;20176;-87
2022/02/26 02:14:49;;;;;;;101.05;90.07;;;2.60;99.90;;;;;;4846956;29;20175;-87
2022/02/26 02:17:15;;;;;;;106.80;96.00;;;2.60;99.90;;;;;;4846731;29;20602;-87
2022/02/26 02:19:41;;;;;;;123.73;111.07;;;2.60;99.90;;;;;;4845772;29;20659;-87
2022/02/26 02:22:08;;;;;;;99.03;87.78;;;2.60;99.90;;;;;;4847766;29;20250;-87
2022/02/26 02:24:34;;;;;;;119.90;108.13;;;2.70;99.90;;;;;;4846991;29;20176;-87
2022/02/26 02:27:01;;;;;;;130.20;117.72;;;2.70;99.90;;;;;;4847273;29;20240;-87
2022/02/26 02:29:27;;;;;;;122.88;110.78;;;2.70;99.90;;;;;;4847770;29;20187;-87
2022/02/26 02:31:54;;;;;;;100.28;89.45;;;2.70;99.90;;;;;;4847146;29;20223;-87
2022/02/26 02:34:19;;;;;;;108.28;97.40;;;2.70;99.90;;;;;;4847642;29;20250;-87
2022/02/26 02:36:47;;;;;;;131.10;118.43;;;2.70;99.90;;;;;;4846420;29;20252;-87
2022/02/26 02:39:13;;;;;;;126.05;113.90;;;2.80;99.90;;;;;;4848362;29;20167;-87
2022/02/26 02:41:40;;;;;;;107.07;95.90;;;2.80;99.90;;;;;;4846457;29;20195;-87
2022/02/26 02:44:10;;;;;;;105.38;93.82;;;2.80;99.90;;;;;;4846159;29;20675;-88
2022/02/26 02:46:36;;;;;;;119.40;107.00;;;2.80;99.90;;;;;;4846990;29;20268;-88
2022/02/26 02:49:02;;;;;;;128.50;115.85;;;2.90;99.90;;;;;;4845506;29;20558;-88
2022/02/26 02:51:28;;;;;;;132.98;120.60;;;2.90;99.90;;;;;;4846451;29;20203;-88
2022/02/26 02:53:53;;;;;;;102.40;90.60;;;3.00;99.90;;;;;;4846901;29;20167;-87
2022/02/26 02:56:19;;;;;;;111.67;100.10;;;3.00;99.90;;;;;;4847461;29;20277;-87
2022/02/26 02:58:45;;;;;;;143.90;131.23;;;3.00;99.90;;;;;;4847825;29;20184;-87
2022/02/26 03:01:10;;;;;;;121.13;109.60;;;3.00;99.90;;;;;;4846836;29;20188;-87
2022/02/26 03:03:36;;;;;;;137.70;124.93;;;3.00;99.90;;;;;;4846083;29;20207;-87
2022/02/26 03:06:02;;;;;;;110.77;99.30;;;3.00;99.90;;;;;;4847021;29;20200;-87
2022/02/26 03:08:28;;;;;;;125.45;113.63;;;3.00;99.90;;;;;;4846839;29;20191;-87
2022/02/26 03:10:56;;;;;;;120.97;108.87;;;3.10;99.90;;;;;;4848163;29;20192;-87
2022/02/26 03:13:23;;;;;;;125.13;113.53;;;3.10;99.90;;;;;;4847255;29;20514;-87
2022/02/26 03:15:50;;;;;;;148.52;135.23;;;3.10;99.90;;;;;;4850407;29;20180;-87
2022/02/26 03:18:21;;;;;;;121.05;109.50;;;3.10;99.90;;;;;;4848714;29;20171;-87
2022/02/26 03:20:47;;;;;;;125.32;113.07;;;3.00;99.90;;;;;;4845958;29;20171;-88
2022/02/26 03:23:13;;;;;;;131.48;118.75;;;3.00;99.90;;;;;;4846992;29;20176;-87
2022/02/26 03:25:40;;;;;;;144.63;132.20;;;3.00;99.90;;;;;;4846670;29;20676;-88
2022/02/26 03:28:05;;;;;;;141.93;129.68;;;3.00;99.90;;;;;;4850029;29;20214;-87
2022/02/26 03:30:32;;;;;;;168.27;153.77;;;3.00;99.90;;;;;;4853276;29;20191;-88
2022/02/26 03:32:58;;;;;;;114.93;103.40;;;3.00;99.90;;;;;;4852559;29;20172;-87
2022/02/26 03:35:24;;;;;;;121.30;109.43;;;3.00;99.90;;;;;;4855296;29;20207;-87
2022/02/26 03:37:50;;;;;;;108.95;97.80;;;3.00;99.90;;;;;;4854222;29;20179;-87
2022/02/26 03:40:16;;;;;;;147.32;134.20;;;3.00;99.90;;;;;;4855244;29;20629;-87
2022/02/26 03:42:42;;;;;;;127.77;116.03;;;2.90;99.90;;;;;;4853559;29;20220;-87
2022/02/26 03:45:10;;;;;;;120.40;109.03;;;2.80;99.90;;;;;;4854343;29;20183;-87
2022/02/26 03:47:37;;;;;;;118.25;106.15;;;2.70;99.90;;;;;;4854487;29;20196;-87
2022/02/26 03:50:04;;;;;;;104.85;93.55;;;2.70;99.90;;;;;;4854613;29;20222;-87
2022/02/26 03:52:33;;;;;;;105.82;89.53;;;2.60;99.90;;;;;;4852556;29;20172;-87
2022/02/26 03:55:02;;;;;;;123.25;110.70;;;2.60;99.90;;;;;;4853133;29;20204;-87
2022/02/26 03:57:29;;;;;;;89.32;63.05;;;2.50;99.90;;;;;;4854376;29;20182;-87
2022/02/26 04:00:07;;;;;;;100.68;83.90;;;2.40;99.90;;;;;;4853219;29;20172;-87
2022/02/26 04:02:34;;;;;;;98.57;72.55;;;2.30;99.90;;;;;;4852930;29;20597;-87
2022/02/26 04:05:00;;;;;;;93.03;62.50;;;2.30;99.90;;;;;;4851858;29;20176;-87
2022/02/26 04:07:25;;;;;;;98.07;76.30;;;2.20;99.90;;;;;;4853132;29;20172;-88
2022/02/26 04:09:51;;;;;;;98.27;66.73;;;2.10;99.90;;;;;;4851993;29;20187;-87
2022/02/26 04:12:17;;;;;;;89.63;65.83;;;2.10;99.90;;;;;;4853401;29;20200;-87
2022/02/26 04:14:43;;;;;;;90.20;63.93;;;2.00;99.90;;;;;;4853662;29;20532;-87
2022/02/26 04:17:09;;;;;;;90.72;61.55;;;2.00;99.90;;;;;;4853402;29;20666;-87
2022/02/26 04:19:35;;;;;;;87.78;53.20;;;1.90;99.90;;;;;;4853188;29;20257;-87
2022/02/26 04:22:01;;;;;;;104.83;86.57;;;1.80;99.90;;;;;;4852841;29;20176;-87
2022/02/26 04:24:27;;;;;;;90.45;68.65;;;1.80;99.90;;;;;;4853493;29;20441;-87
2022/02/26 04:26:53;;;;;;;89.37;64.47;;;1.80;99.90;;;;;;4854008;29;20224;-87
2022/02/26 04:29:18;;;;;;;88.60;64.17;;;1.70;99.90;;;;;;4854872;29;20275;-87
2022/02/26 04:31:44;;;;;;;96.00;61.17;;;1.60;99.90;;;;;;4852973;29;20286;-87
2022/02/26 04:34:10;;;;;;;87.57;59.73;;;1.60;99.90;;;;;;4854333;29;20456;-87
2022/02/26 04:36:36;;;;;;;84.87;51.23;;;1.60;99.90;;;;;;4854501;29;20577;-87
2022/02/26 04:39:03;;;;;;;97.13;68.63;;;1.60;99.90;;;;;;4851928;29;20413;-87
2022/02/26 04:41:29;;;;;;;93.40;64.68;;;1.50;99.90;;;;;;4851917;29;20413;-87
2022/02/26 04:43:55;;;;;;;96.17;74.00;;;1.50;99.90;;;;;;4850753;29;20645;-87
2022/02/26 04:46:21;;;;;;;92.88;62.30;;;1.50;99.90;;;;;;4850663;29;20200;-87
2022/02/26 04:48:47;;;;;;;103.07;65.70;;;1.40;99.90;;;;;;4851285;29;20180;-87
2022/02/26 04:51:13;;;;;;;89.57;59.33;;;1.40;99.90;;;;;;4852550;29;20568;-87
2022/02/26 04:53:39;;;;;;;90.20;70.25;;;1.30;99.90;;;;;;4850674;29;20413;-87
2022/02/26 04:56:06;;;;;;;97.90;73.83;;;1.30;99.90;;;;;;4850024;29;20244;-87
2022/02/26 04:58:34;;;;;;;88.93;61.58;;;1.30;99.90;;;;;;4850752;29;20417;-87
2022/02/26 05:01:00;;;;;;;105.78;77.07;;;1.30;99.90;;;;;;4834814;29;20188;-87
2022/02/26 05:03:32;;;;;;;89.77;56.53;;;1.30;99.90;;;;;;5002243;23;20318;-89
2022/02/26 05:06:01;;;;;;;90.05;61.25;;;1.30;99.90;;;;;;4863637;29;20461;-89
2022/02/26 05:08:27;;;;;;;91.47;63.60;;;1.30;99.90;;;;;;4863969;29;20175;-89
2022/02/26 05:10:53;;;;;;;93.57;70.63;;;1.30;99.90;;;;;;4863289;29;20195;-89
2022/02/26 05:13:21;;;;;;;89.73;61.10;;;1.30;99.90;;;;;;4863182;29;20167;-88
2022/02/26 05:15:49;;;;;;;92.55;69.10;;;1.30;99.90;;;;;;4861694;29;20195;-89
2022/02/26 05:18:15;;;;;;;92.03;60.70;;;1.20;99.90;;;;;;4863369;29;20174;-89
2022/02/26 05:20:40;;;;;;;87.83;57.60;;;1.20;99.90;;;;;;4862800;29;20516;-89
2022/02/26 05:23:09;;;;;;;93.60;62.77;;;1.20;99.90;;;;;;4862211;29;20183;-89
2022/02/26 05:25:35;;;;;;;95.68;65.20;;;1.10;99.90;;;;;;4862785;29;20243;-89
2022/02/26 05:28:01;;;;;;;88.28;55.95;;;1.10;99.90;;;;;;4862296;29;20182;-89
2022/02/26 05:30:27;;;;;;;101.37;76.03;;;1.10;99.90;;;;;;4862767;29;20274;-89
2022/02/26 05:32:53;;;;;;;100.88;63.67;;;1.00;99.90;;;;;;4862652;29;20219;-89
2022/02/26 05:35:19;;;;;;;95.90;63.87;;;1.10;99.90;;;;;;4861434;29;20171;-89
2022/02/26 05:37:45;;;;;;;93.70;60.03;;;1.00;99.90;;;;;;4862735;29;20436;-89
2022/02/26 05:40:11;;;;;;;98.73;67.37;;;1.00;99.90;;;;;;4861322;29;20707;-89
2022/02/26 05:42:37;;;;;;;90.50;60.80;;;1.00;99.90;;;;;;4862636;29;20182;-89
2022/02/26 05:45:03;;;;;;;89.60;56.60;;;1.10;99.90;;;;;;4862828;29;20640;-89
2022/02/26 05:47:29;;;;;;;90.03;63.13;;;1.00;99.90;;;;;;4861682;29;20924;-89
2022/02/26 05:49:55;;;;;;;91.47;60.63;;;1.00;99.90;;;;;;4860663;29;20180;-89
2022/02/26 05:52:20;;;;;;;91.27;61.20;;;0.90;99.90;;;;;;4862157;29;20451;-89
2022/02/26 05:54:48;;;;;;;94.37;75.53;;;0.90;99.90;;;;;;4862879;29;20416;-89
2022/02/26 05:57:14;;;;;;;98.32;74.40;;;0.90;99.90;;;;;;4862194;29;20617;-89
2022/02/26 05:59:43;;;;;;;92.35;69.38;;;0.90;99.90;;;;;;4862483;29;20194;-89
2022/02/26 06:02:09;;;;;;;96.13;61.20;;;0.90;99.90;;;;;;4862166;29;20183;-89
2022/02/26 06:04:34;;;;;;;92.77;63.20;;;0.90;99.90;;;;;;4862544;29;20151;-89
2022/02/26 06:07:00;;;;;;;96.00;73.47;;;0.90;99.90;;;;;;4861955;29;20195;-89
2022/02/26 06:09:26;;;;;;;92.20;67.17;;;1.00;99.90;;;;;;4862343;29;20511;-89
2022/02/26 06:11:52;;;;;;;89.23;63.20;;;1.10;99.90;;;;;;4862191;29;20476;-89
2022/02/26 06:14:20;;;;;;;101.10;86.57;;;1.10;99.90;;;;;;4862226;29;20164;-89
2022/02/26 06:16:46;;;;;;;96.97;68.28;;;1.20;99.90;;;;;;4860629;29;20198;-89
2022/02/26 06:19:11;;;;;;;100.40;68.20;;;1.30;99.90;;;;;;4861971;29;20644;-88
2022/02/26 06:21:37;;;;;;;92.50;66.93;;;1.40;99.90;;;;;;4862241;29;20171;-89
2022/02/26 06:24:03;;;;;;;99.83;77.07;;;1.40;99.90;;;;;;4860694;29;20963;-89
2022/02/26 06:26:29;;;;;;;97.55;74.30;;;1.50;99.90;;;;;;4862043;29;20435;-89
2022/02/26 06:28:55;;;;;;;104.90;86.33;;;1.50;99.90;;;;;;4860485;29;20178;-88
2022/02/26 06:31:21;;;;;;;94.30;59.97;;;1.60;99.90;;;;;;4860367;29;20487;-89
2022/02/26 06:33:47;;;;;;;103.55;82.68;;;1.60;99.90;;;;;;4861602;29;20195;-88
2022/02/26 06:36:16;;;;;;;93.83;79.03;;;1.70;99.90;;;;;;4860695;29;20639;-88
2022/02/26 06:38:50;;;;;;;109.97;98.10;;;1.70;99.90;;;;;;4861557;29;20174;-88
2022/02/26 06:41:19;;;;;;;96.18;67.55;;;1.70;99.90;;;;;;4861760;29;20527;-88
2022/02/26 06:43:45;;;;;;;96.93;76.22;;;1.80;99.90;;;;;;4861435;29;20171;-88
2022/02/26 06:46:13;;;;;;;105.05;83.97;;;1.80;99.90;;;;;;4861470;29;20201;-88
2022/02/26 06:48:39;;;;;;;99.10;79.47;;;1.80;99.90;;;;;;4862058;29;20181;-88
2022/02/26 06:51:06;;;;;;;116.47;104.10;;;1.80;99.90;;;;;;4861237;29;20195;-88
2022/02/26 06:53:31;;;;;;;108.07;91.65;;;1.90;99.90;;;;;;4860422;29;20259;-88
2022/02/26 06:55:57;;;;;;;96.60;75.43;;;2.00;99.90;;;;;;4861249;29;20270;-88
2022/02/26 06:58:26;;;;;;;95.67;69.50;;;2.10;99.90;;;;;;4861588;29;20205;-88
2022/02/26 07:00:54;;;;;;;104.32;84.00;;;2.10;99.90;;;;;;4861403;29;20175;-88
2022/02/26 07:03:20;;;;;;;108.30;72.82;;;2.10;99.90;;;;;;4860401;29;20183;-88
2022/02/26 07:05:49;;;;;;;104.67;92.93;;;2.10;99.90;;;;;;4861315;29;20786;-88
2022/02/26 07:08:14;;;;;;;105.63;92.38;;;2.10;99.90;;;;;;4860165;29;20179;-87
2022/02/26 07:10:40;;;;;;;102.27;90.50;;;2.10;99.90;;;;;;4861013;29;20559;-88
2022/02/26 07:13:05;;;;;;;96.33;74.37;;;2.10;99.90;;;;;;4861297;29;20235;-87
2022/02/26 07:15:31;;;;;;;118.47;106.13;;;2.20;99.90;;;;;;4860962;29;20198;-87
2022/02/26 07:17:57;;;;;;;97.57;79.63;;;2.30;99.90;;;;;;4861288;29;20171;-87
2022/02/26 07:20:23;;;;;;;102.40;82.63;;;2.30;99.90;;;;;;4861033;29;20479;-88
2022/02/26 07:22:49;;;;;;;101.10;89.77;;;2.30;99.90;;;;;;4859740;29;20424;-88
2022/02/26 07:25:14;;;;;;;98.07;74.30;;;2.30;99.90;;;;;;4861149;29;20171;-88
2022/02/26 07:27:43;;;;;;;103.70;91.20;;;2.30;99.90;;;;;;4860903;29;20441;-88
2022/02/26 07:30:09;;;;;;;105.78;94.50;;;2.40;99.90;;;;;;4861038;29;20182;-88
2022/02/26 07:32:35;;;;;;;105.38;87.50;;;2.40;99.90;;;;;;4860023;29;20674;-87
2022/02/26 07:35:02;;;;;;;109.03;94.25;;;2.40;99.90;;;;;;4860773;29;20183;-88
2022/02/26 07:37:28;;;;;;;117.40;103.45;;;2.50;99.90;;;;;;4860871;29;20648;-88
2022/02/26 07:39:54;;;;;;;125.73;112.87;;;2.60;99.90;;;;;;4859443;29;20179;-88
2022/02/26 07:42:20;;;;;;;95.13;78.85;;;2.60;99.90;;;;;;4861070;29;20584;-88
2022/02/26 07:44:48;;;;;;;100.20;79.37;;;2.70;99.90;;;;;;4859548;29;20164;-87
2022/02/26 07:47:14;;;;;;;101.60;90.65;;;2.80;99.90;;;;;;4860817;29;20191;-88
2022/02/26 07:49:43;;;;;;;110.43;98.43;;;2.80;99.90;;;;;;4859732;29;20198;-88
2022/02/26 07:52:12;;;;;;;111.30;99.32;;;2.90;99.90;;;;;;4859389;29;20462;-89
2022/02/26 07:54:44;;;;;;;100.93;77.63;;;2.90;99.90;;;;;;4859838;29;20175;-88
2022/02/26 07:57:12;;;;;;;125.68;112.60;;;3.00;99.90;;;;;;4859323;29;20613;-88
2022/02/26 07:59:38;;;;;;;97.90;69.93;;;3.10;99.90;;;;;;4859345;29;20247;-89
2022/02/26 08:02:04;;;;;;;104.43;91.90;;;3.10;99.90;;;;;;4860552;29;20187;-89
2022/02/26 08:04:30;;;;;;;106.87;86.50;;;3.20;99.90;;;;;;4861370;29;20635;-89
2022/02/26 08:10:07;;;;;;;114.80;83.90;;;3.40;99.90;;;;;;4840147;29;20175;-88
2022/02/26 08:12:33;;;;;;;106.82;92.68;;;3.50;99.90;;;;;;4859288;29;20187;-88
2022/02/26 08:14:59;;;;;;;116.53;96.63;;;3.70;99.90;;;;;;4864155;29;20585;-88
2022/02/26 08:17:24;;;;;;;110.33;89.73;;;3.80;99.90;;;;;;4863927;29;20187;-88
2022/02/26 08:19:50;;;;;;;124.07;109.23;;;3.90;99.90;;;;;;4863867;29;20532;-88
2022/02/26 08:22:15;;;;;;;125.30;103.00;;;4.00;99.90;;;;;;4864398;29;20176;-88
2022/02/26 08:24:41;;;;;;;113.37;100.50;;;4.10;99.90;;;;;;4862924;29;20274;-88
2022/02/26 08:27:07;;;;;;;121.67;96.23;;;4.10;99.90;;;;;;4863773;29;20191;-89
2022/02/26 08:29:33;;;;;;;111.57;85.33;;;4.20;99.90;;;;;;4862757;29;20943;-88
2022/02/26 08:31:59;;;;;;;126.70;97.20;;;4.20;99.90;;;;;;4862450;29;20195;-88
2022/02/26 08:34:24;;;;;;;137.13;112.90;;;4.20;99.90;;;;;;4862784;29;20427;-88
2022/02/26 08:36:53;;;;;;;124.07;110.47;;;4.10;99.90;;;;;;4862222;29;20214;-88
2022/02/26 08:39:19;;;;;;;133.23;119.50;;;4.00;99.90;;;;;;4863791;29;20168;-88
2022/02/26 08:41:45;;;;;;;116.60;102.40;;;4.10;99.90;;;;;;4863554;29;20654;-88
2022/02/26 08:44:10;;;;;;;111.00;79.57;;;4.30;99.90;;;;;;4863669;29;20171;-88
2022/02/26 08:46:39;;;;;;;125.20;94.77;;;4.60;99.90;;;;;;4863403;29;20192;-89
2022/02/26 08:49:04;;;;;;;117.38;83.30;;;4.70;99.90;;;;;;4863695;29;20167;-89
2022/02/26 08:51:30;;;;;;;121.13;91.10;;;4.70;99.90;;;;;;4862887;29;20207;-89
2022/02/26 08:53:56;;;;;;;123.40;92.33;;;4.60;99.90;;;;;;4862360;29;20226;-89
2022/02/26 08:56:33;;;;;;;120.23;91.93;;;4.60;99.90;;;;;;4863197;29;20198;-89
2022/02/26 08:59:05;;;;;;;112.50;74.50;;;4.60;99.90;;;;;;4862741;29;20183;-89
2022/02/26 09:01:34;;;;;;;124.60;75.28;;;4.60;99.90;;;;;;4862732;29;20223;-89
2022/02/26 09:04:00;;;;;;;135.70;74.25;;;4.60;99.90;;;;;;4863100;29;20215;-89
2022/02/26 09:06:28;;;;;;;115.60;57.73;;;4.80;99.90;;;;;;4863455;29;20198;-89
2022/02/26 09:08:57;;;;;;;103.40;52.35;;;4.80;99.90;;;;;;4861943;29;20838;-89
2022/02/26 09:11:22;;;;;;;107.57;49.42;;;4.80;99.90;;;;;;4861612;29;20235;-89
2022/02/26 09:13:48;;;;;;;103.43;50.13;;;4.90;99.90;;;;;;4863050;29;20202;-89
2022/02/26 09:16:15;;;;;;;106.60;44.37;;;4.90;99.90;;;;;;4861870;29;20265;-89
2022/02/26 09:18:42;;;;;;;107.35;46.75;;;4.80;99.90;;;;;;4861743;29;20456;-89
2022/02/26 09:21:13;;;;;;;113.53;45.15;;;4.60;99.90;;;;;;4861612;29;20307;-89
2022/02/26 09:23:39;;;;;;;110.25;43.97;;;4.50;99.90;;;;;;4862816;29;20152;-89
2022/02/26 09:26:17;;;;;;;91.65;43.15;;;4.40;99.90;;;;;;4861818;29;20191;-89
2022/02/26 09:28:53;;;;;;;117.88;44.05;;;4.60;99.90;;;;;;4862208;29;20257;-89
2022/02/26 09:31:27;;;;;;;99.15;39.28;;;4.50;99.90;;;;;;4862073;29;20737;-90
2022/02/26 09:34:04;;;;;;;104.07;39.78;;;4.60;99.90;;;;;;4862597;29;20205;-89
2022/02/26 09:36:33;;;;;;;96.25;31.65;;;4.70;99.90;;;;;;4861274;29;20210;-90
2022/02/26 09:39:11;;;;;;;96.95;37.40;;;4.80;99.90;;;;;;4862662;29;20564;-90
2022/02/26 09:41:38;;;;;;;100.28;35.95;;;4.80;99.90;;;;;;4862443;29;20171;-89
2022/02/26 09:44:10;;;;;;;94.93;32.13;;;4.80;99.90;;;;;;4861515;29;20272;-89
2022/02/26 09:46:43;;;;;;;93.05;35.33;;;4.90;99.90;;;;;;4862570;29;20194;-90
2022/02/26 09:49:15;;;;;;;101.20;43.88;;;4.90;99.90;;;;;;4861137;29;20211;-90
2022/02/26 09:52:02;;;;;;;101.40;47.17;;;4.80;99.90;;;;;;4861643;29;20187;-89
2022/02/26 09:54:48;;;;;;;112.97;45.08;;;4.60;99.90;;;;;;4862559;29;20156;-90
2022/02/26 09:57:16;;;;;;;108.78;51.45;;;4.60;99.90;;;;;;4860599;29;20199;-89
2022/02/26 10:00:04;;;;;;;;;;;;;;;;;;;;;
2022/02/26 10:03:00;;;;;;;108.10;56.78;;;4.70;99.90;;;;;;4862483;29;20201;-90
2022/02/26 10:06:19;;;;;;;;;;;;;;;;;;;;;
2022/02/26 10:09:03;;;;;;;107.32;41.00;;;4.80;99.90;;;;;;4842665;29;20652;-91
2022/02/26 10:11:41;;;;;;;97.55;46.72;;;5.10;99.90;;;;;;4860494;29;20228;-90
2022/02/26 10:14:24;;;;;;;103.35;51.92;;;5.20;99.90;;;;;;4860702;29;20179;-90
2022/02/26 10:20:10;;;;;;;;;;;;;;;;;;;;;
2022/02/26 10:22:48;;;;;;;102.18;36.92;;;5.80;99.90;;;;;;4861826;29;20159;-90
2022/02/26 10:30:56;;;;;;;104.15;62.65;;;6.50;99.90;;;;;;3992783;27;20571;-90
2022/02/26 10:33:53;;;;;;;103.18;61.85;;;6.30;99.90;;;;;;4860559;29;20186;-90
2022/02/26 10:37:16;;;;;;;;;;;;;;;;;;;;;
2022/02/26 10:40:12;;;;;;;89.05;28.88;;;5.90;99.90;;;;;;4868818;29;20546;-90
2022/02/26 10:45:57;;;;;;;96.60;33.40;;;6.60;99.90;;;;;;4880499;29;20206;-90
2022/02/26 10:48:54;;;;;;;91.38;29.33;;;6.30;99.90;;;;;;4879889;29;20171;-90
2022/02/26 10:54:41;;;;;;;93.95;34.33;;;6.30;99.90;;;;;;4867007;29;20659;-88
2022/02/26 10:57:39;;;;;;;96.03;36.40;;;6.30;99.90;;;;;;4878646;29;20190;-88
2022/02/26 11:00:08;;;;;;;91.90;31.60;;;6.30;99.90;;;;;;4873745;29;20194;-89
2022/02/26 11:02:34;;;;;;;95.63;37.95;;;6.70;99.90;;;;;;4943411;23;20227;-88
2022/02/26 11:05:03;;;;;;;92.20;21.67;;;6.60;99.90;;;;;;4876155;29;20195;-88
2022/02/26 11:07:31;;;;;;;95.45;23.60;;;6.80;99.90;;;;;;4856593;29;20401;-88
2022/02/26 11:09:59;;;;;;;97.43;19.52;;;6.40;99.90;;;;;;4858492;29;20175;-88
2022/02/26 11:12:27;;;;;;;92.65;20.48;;;6.40;99.90;;;;;;4861183;29;20175;-88
2022/02/26 11:15:01;;;;;;;96.75;21.20;;;6.20;99.90;;;;;;4854483;29;20178;-87
2022/02/26 11:17:32;;;;;;;88.03;21.63;;;6.20;99.90;;;;;;4846212;29;20175;-87
2022/02/26 11:20:15;;;;;;;91.70;28.75;;;6.20;99.90;;;;;;4843732;29;20187;-86
2022/02/26 11:22:53;;;;;;;88.75;24.27;;;6.20;99.90;;;;;;4845305;29;20160;-87
2022/02/26 11:25:19;;;;;;;81.22;19.88;;;6.70;99.90;;;;;;4843290;29;20171;-86
2022/02/26 11:27:51;;;;;;;85.57;19.60;;;7.20;99.90;;;;;;4844822;29;20172;-87
2022/02/26 11:30:37;;;;;;;87.88;13.88;;;7.50;99.90;;;;;;4843272;29;20263;-86
2022/02/26 11:33:06;;;;;;;80.82;11.20;;;7.80;99.90;;;;;;4843789;29;20174;-86
2022/02/26 11:35:35;;;;;;;85.10;13.85;;;7.70;93.20;;;;;;4844733;29;20683;-86
2022/02/26 11:38:18;;;;;;;82.53;11.77;;;7.70;91.40;;;;;;4845007;29;20281;-86
2022/02/26 11:41:14;;;;;;;76.50;12.43;;;7.90;85.60;;;;;;4845469;29;20156;-86
2022/02/26 11:43:51;;;;;;;78.90;11.02;;;8.30;91.00;;;;;;4845804;29;20176;-87
2022/02/26 11:46:28;;;;;;;76.10;12.70;;;8.70;76.10;;;;;;4843328;29;20204;-86
2022/02/26 11:48:56;;;;;;;81.43;14.02;;;9.00;64.90;;;;;;4844446;29;20176;-86
2022/02/26 11:51:36;;;;;;;78.82;15.20;;;9.30;52.30;;;;;;4847737;29;20680;-86
2022/02/26 11:54:10;;;;;;;75.63;13.20;;;9.10;40.80;;;;;;4847596;29;20186;-86
2022/02/26 11:57:04;;;;;;;78.35;14.73;;;9.00;52.40;;;;;;4846878;29;20331;-86
2022/02/26 11:59:47;;;;;;;;;;;;;;;;;;;;;
2022/02/26 12:02:14;;;;;;;74.35;10.93;;;8.80;28.50;;;;;;4848536;29;20744;-86
2022/02/26 12:04:57;;;;;;;72.82;15.73;;;8.90;45.30;;;;;;4846740;29;20267;-86
2022/02/26 12:07:39;;;;;;;74.13;7.88;;;9.50;41.40;;;;;;4848756;29;20266;-86
2022/02/26 12:10:11;;;;;;;73.53;10.13;;;9.80;3.00;;;;;;4849354;29;20157;-86
2022/02/26 12:12:37;;;;;;;72.25;10.15;;;9.10;2.60;;;;;;4847472;29;20199;-86
2022/02/26 12:15:17;;;;;;;72.72;6.43;;;9.00;15.00;;;;;;4848105;29;20196;-86
2022/02/26 12:18:00;;;;;;;69.18;7.32;;;9.10;1.00;;;;;;4849311;29;20163;-86
2022/02/26 12:20:32;;;;;;;69.97;7.65;;;9.20;11.00;;;;;;4848488;29;20262;-86
2022/02/26 12:23:12;;;;;;;68.57;6.95;;;9.10;1.30;;;;;;4849704;29;20168;-86
2022/02/26 12:25:39;;;;;;;77.30;19.75;;;9.40;5.70;;;;;;4850565;29;20195;-86
2022/02/26 12:28:12;;;;;;;79.07;14.45;;;8.90;9.80;;;;;;4849547;29;20582;-86
2022/02/26 12:31:04;;;;;;;80.82;23.17;;;8.50;11.20;;;;;;4848934;29;20206;-86
2022/02/26 12:33:45;;;;;;;76.45;14.35;;;8.10;19.10;;;;;;4850526;29;20573;-86
2022/02/26 12:36:18;;;;;;;75.80;15.77;;;8.10;23.20;;;;;;4850366;29;20215;-87
2022/02/26 12:38:49;;;;;;;75.63;23.60;;;8.30;29.50;;;;;;4850933;29;20197;-87
2022/02/26 12:41:43;;;;;;;84.68;12.65;;;8.80;28.50;;;;;;4852562;29;20265;-87
2022/02/26 12:44:09;;;;;;;81.20;20.75;;;9.10;21.20;;;;;;4851056;29;20584;-86
2022/02/26 12:46:44;;;;;;;78.37;13.27;;;9.00;18.10;;;;;;4851428;29;20204;-86
2022/02/26 12:49:14;;;;;;;74.82;12.43;;;8.80;16.10;;;;;;4851011;29;20419;-86
2022/02/26 12:51:42;;;;;;;71.57;11.48;;;8.60;10.70;;;;;;4848322;29;20622;-86
2022/02/26 12:54:14;;;;;;;69.18;10.25;;;8.40;6.90;;;;;;4850334;29;20637;-87
2022/02/26 12:56:43;;;;;;;75.45;16.92;;;8.30;10.00;;;;;;4848310;29;20188;-86
2022/02/26 12:59:29;;;;;;;77.13;25.45;;;8.20;23.70;;;;;;4846170;29;20171;-86
2022/02/26 13:02:10;;;;;;;81.65;22.75;;;8.10;25.70;;;;;;4847974;29;20187;-86
2022/02/26 13:04:51;;;;;;;74.63;22.40;;;8.00;25.30;;;;;;4848959;29;20609;-86
2022/02/26 13:07:17;;;;;;;73.93;20.48;;;7.90;26.60;;;;;;4850098;29;20196;-86
2022/02/26 13:09:56;;;;;;;75.85;10.60;;;7.90;26.50;;;;;;4848433;29;20606;-86